Time;durP1;ratioP1;P1;durP2;ratioP2;P2;SDS_P1;SDS_P2;PMS_P1;PMS_P2;Temp;Humidity;BMP_temperature;BMP_pressure;BME280_temperature;BME280_humidity;BME280_pressure;Samples;Min_cycle;Max_cycle;Signal;HPM_P1;HPM_P2
2021/06/16 00:01:40;;;;;;;2.03;1.70;;;;;;;27.74;43.70;69011.09;5042726;28;20210;-71
2021/06/16 00:04:08;;;;;;;3.63;1.80;;;;;;;27.73;43.79;69009.06;5033694;28;20209;-70
2021/06/16 00:06:35;;;;;;;3.87;2.17;;;;;;;27.70;44.80;69005.13;5033607;28;20226;-70
2021/06/16 00:09:05;;;;;;;2.10;1.63;;;;;;;27.68;44.16;69003.25;5041103;28;20237;-70
2021/06/16 00:11:32;;;;;;;2.27;1.90;;;;;;;27.64;44.43;68998.78;5039905;28;20207;-70
2021/06/16 00:14:00;;;;;;;2.57;1.60;;;;;;;27.63;43.81;68997.63;5031571;28;20203;-70
2021/06/16 00:16:27;;;;;;;2.77;1.70;;;;;;;27.62;44.50;68996.09;5031399;28;20229;-71
2021/06/16 00:18:55;;;;;;;2.60;1.57;;;;;;;27.60;44.61;68994.97;5040387;28;20206;-70
2021/06/16 00:21:22;;;;;;;3.90;1.97;;;;;;;27.59;45.26;68992.97;5039975;28;20225;-70
2021/06/16 00:23:50;;;;;;;2.87;2.00;;;;;;;27.57;45.13;68991.00;5040537;28;20355;-71
2021/06/16 00:26:18;;;;;;;2.97;1.90;;;;;;;27.54;45.44;68988.13;5042716;28;20322;-71
2021/06/16 00:28:46;;;;;;;4.33;1.90;;;;;;;27.53;44.70;68986.25;5042415;28;20229;-70
2021/06/16 00:31:13;;;;;;;3.53;1.60;;;;;;;27.51;44.91;68985.31;5034150;28;20209;-70
2021/06/16 00:33:40;;;;;;;3.00;1.63;;;;;;;27.49;45.28;68982.84;5047771;28;20212;-70
2021/06/16 00:36:08;;;;;;;2.10;1.60;;;;;;;27.47;45.53;68980.59;5053051;28;20246;-70
2021/06/16 00:38:35;;;;;;;3.37;1.80;;;;;;;27.44;46.03;68976.97;5048337;28;20213;-70
2021/06/16 00:41:03;;;;;;;4.07;1.73;;;;;;;27.43;45.10;68975.25;5048902;28;20662;-70
2021/06/16 00:43:31;;;;;;;3.00;1.50;;;;;;;27.41;46.03;68973.47;5033171;28;20210;-70
2021/06/16 00:45:59;;;;;;;2.20;1.40;;;;;;;27.39;45.85;68970.66;5031950;28;20232;-70
2021/06/16 00:48:26;;;;;;;4.10;1.70;;;;;;;27.36;46.01;68967.72;5024338;28;20254;-70
2021/06/16 00:50:53;;;;;;;3.23;1.70;;;;;;;27.32;46.30;68963.97;5046066;28;20224;-70
2021/06/16 00:53:21;;;;;;;1.87;1.60;;;;;;;27.30;46.13;68961.44;5033103;28;20210;-70
2021/06/16 00:55:48;;;;;;;4.47;1.83;;;;;;;27.28;45.48;68958.88;5037571;28;20239;-70
2021/06/16 00:58:15;;;;;;;3.50;1.67;;;;;;;27.25;45.88;68955.53;5041078;28;20244;-70
2021/06/16 01:00:46;;;;;;;2.20;1.67;;;;;;;27.23;45.61;68953.41;5042588;28;20208;-70
2021/06/16 01:03:16;;;;;;;2.33;1.70;;;;;;;27.23;44.98;68953.13;5042262;28;20205;-70
2021/06/16 01:05:48;;;;;;;4.17;1.87;;;;;;;27.22;45.76;68952.38;5031271;28;20232;-71
2021/06/16 01:08:22;;;;;;;2.23;1.63;;;;;;;27.20;46.48;68949.69;5036034;28;20220;-71
2021/06/16 01:10:50;;;;;;;2.70;1.90;;;;;;;27.16;47.41;68946.09;5042881;28;20514;-71
2021/06/16 01:13:24;;;;;;;3.90;2.00;;;;;;;27.13;47.46;68942.91;5046240;28;20579;-71
2021/06/16 01:15:59;;;;;;;2.70;1.80;;;;;;;27.09;48.39;68937.47;5045742;28;20699;-71
2021/06/16 01:18:27;;;;;;;1.70;1.40;;;;;;;27.05;48.19;68933.50;5031982;28;20209;-71
2021/06/16 01:20:56;;;;;;;4.37;1.80;;;;;;;27.03;47.04;68931.66;5034052;28;20676;-71
2021/06/16 01:23:39;;;;;;;2.70;1.73;;;;;;;26.99;48.79;68926.72;5040836;28;20310;-71
2021/06/16 01:26:35;;;;;;;2.63;1.47;;;;;;;26.98;47.18;68925.56;5041243;28;20768;-70
2021/06/16 01:29:10;;;;;;;2.43;1.93;;;;;;;26.97;46.52;68925.47;5019034;28;20248;-71
2021/06/16 01:31:38;;;;;;;3.60;1.93;;;;;;;26.95;48.55;68922.97;5039102;28;20208;-70
2021/06/16 01:34:06;;;;;;;2.40;1.70;;;;;;;26.92;48.40;68920.22;5025281;28;20208;-70
2021/06/16 01:36:35;;;;;;;5.17;1.90;;;;;;;26.90;48.31;68917.44;5043859;28;20587;-71
2021/06/16 01:39:03;;;;;;;3.20;1.83;;;;;;;26.89;48.09;68916.75;5034218;28;20212;-70
2021/06/16 01:41:30;;;;;;;2.43;1.90;;;;;;;26.89;48.49;68916.09;5047978;28;20585;-71
2021/06/16 01:43:59;;;;;;;3.67;2.00;;;;;;;26.89;47.58;68916.09;5039207;28;20208;-71
2021/06/16 01:46:27;;;;;;;3.03;1.93;;;;;;;26.89;48.01;68916.09;5037314;28;20224;-71
2021/06/16 01:48:55;;;;;;;4.00;2.20;;;;;;;26.85;48.96;68912.50;5030846;28;20209;-71
2021/06/16 01:51:23;;;;;;;3.30;1.80;;;;;;;26.83;49.57;68909.34;5047540;28;20208;-71
2021/06/16 01:53:51;;;;;;;3.07;2.27;;;;;;;26.82;48.93;68908.66;5040916;28;20229;-71
2021/06/16 01:56:20;;;;;;;4.57;2.60;;;;;;;26.80;49.72;68906.72;5042083;28;20233;-71
2021/06/16 01:58:48;;;;;;;3.03;2.33;;;;;;;26.77;49.76;68903.72;5044125;28;20220;-71
2021/06/16 02:01:18;;;;;;;3.53;2.20;;;;;;;26.76;49.81;68902.50;5034343;28;20197;-70
2021/06/16 02:03:45;;;;;;;4.67;2.43;;;;;;;26.74;49.16;68901.06;5031133;28;20197;-71
2021/06/16 02:06:15;;;;;;;3.97;2.13;;;;;;;26.73;49.48;68899.97;5038695;28;20340;-70
2021/06/16 02:08:44;;;;;;;3.23;1.87;;;;;;;26.72;49.39;68899.28;5038215;28;20651;-70
2021/06/16 02:11:12;;;;;;;3.87;2.27;;;;;;;26.72;49.39;68898.69;5034783;28;20590;-70
2021/06/16 02:13:42;;;;;;;2.77;1.87;;;;;;;26.69;51.26;68895.75;5029675;28;20205;-71
2021/06/16 02:16:12;;;;;;;3.03;2.30;;;;;;;26.66;51.17;68892.88;5037739;28;20224;-70
2021/06/16 02:18:45;;;;;;;5.07;2.17;;;;;;;26.64;51.64;68890.34;5032709;28;20215;-71
2021/06/16 02:21:13;;;;;;;2.77;2.13;;;;;;;26.59;52.94;68885.34;5031040;28;20214;-70
2021/06/16 02:23:42;;;;;;;3.67;2.50;;;;;;;26.55;53.49;68880.44;5027237;28;20204;-71
2021/06/16 02:26:10;;;;;;;3.43;2.23;;;;;;;26.54;51.82;68879.00;5037799;28;20235;-70
2021/06/16 02:28:37;;;;;;;2.97;2.10;;;;;;;26.53;51.75;68878.44;5040618;28;20219;-70
2021/06/16 02:31:04;;;;;;;4.70;2.53;;;;;;;26.52;51.91;68877.41;5042874;28;20230;-71
2021/06/16 02:33:32;;;;;;;3.13;2.20;;;;;;;26.52;52.16;68876.72;5039409;28;20215;-71
2021/06/16 02:36:01;;;;;;;4.03;2.43;;;;;;;26.51;52.22;68875.88;5031956;28;20223;-71
2021/06/16 02:38:31;;;;;;;6.53;2.27;;;;;;;26.49;52.80;68873.84;5030884;28;20205;-70
2021/06/16 02:41:01;;;;;;;4.30;2.20;;;;;;;26.47;53.82;68871.31;5045004;28;20214;-71
2021/06/16 02:43:28;;;;;;;4.20;2.30;;;;;;;26.44;53.93;68868.16;5039078;28;20212;-71
2021/06/16 02:45:56;;;;;;;3.57;2.37;;;;;;;26.43;52.98;68867.06;5029226;28;20233;-71
2021/06/16 02:48:25;;;;;;;4.60;2.63;;;;;;;26.42;52.83;68866.19;5042360;28;20686;-70
2021/06/16 02:50:53;;;;;;;2.97;2.60;;;;;;;26.41;53.55;68865.22;5032428;28;20227;-71
2021/06/16 02:53:24;;;;;;;3.00;2.47;;;;;;;26.39;53.70;68863.66;5030710;28;20215;-71
2021/06/16 02:55:54;;;;;;;4.80;2.50;;;;;;;26.39;53.57;68862.78;5039393;28;20220;-71
2021/06/16 02:58:23;;;;;;;3.97;2.70;;;;;;;26.36;55.20;68860.38;5033660;28;20214;-71
2021/06/16 03:00:55;;;;;;;6.47;2.27;;;;;;;26.35;54.52;68858.22;5033143;28;20245;-71
2021/06/16 03:03:24;;;;;;;5.33;2.33;;;;;;;26.33;54.99;68856.16;5042145;28;20217;-71
2021/06/16 03:05:52;;;;;;;4.27;2.50;;;;;;;26.30;54.48;68854.19;5041757;28;20228;-71
2021/06/16 03:08:24;;;;;;;3.47;2.53;;;;;;;26.29;54.14;68852.75;5046153;28;20217;-70
2021/06/16 03:10:51;;;;;;;7.37;2.80;;;;;;;26.27;55.02;68851.09;5035221;28;20232;-71
2021/06/16 03:13:19;;;;;;;7.63;3.00;;;;;;;26.25;55.18;68848.94;5035014;28;20694;-71
2021/06/16 03:15:47;;;;;;;2.70;2.40;;;;;;;26.23;55.26;68846.47;5040079;28;20738;-70
2021/06/16 03:18:15;;;;;;;3.70;2.53;;;;;;;26.21;55.12;68844.25;5047081;28;20211;-71
2021/06/16 03:20:43;;;;;;;4.80;2.50;;;;;;;26.19;54.73;68842.28;5039483;28;20690;-70
2021/06/16 03:23:11;;;;;;;4.10;2.63;;;;;;;26.17;55.38;68840.09;5045454;28;20205;-70
2021/06/16 03:25:40;;;;;;;4.50;3.27;;;;;;;26.15;55.66;68837.63;5033888;28;20255;-70
2021/06/16 03:28:08;;;;;;;4.67;2.37;;;;;;;26.13;55.91;68835.69;5033694;28;20210;-70
2021/06/16 03:30:36;;;;;;;5.87;2.97;;;;;;;26.10;56.96;68831.94;5043565;28;20232;-70
2021/06/16 03:33:04;;;;;;;5.83;2.97;;;;;;;26.08;56.81;68830.16;5044865;28;20316;-71
2021/06/16 03:35:31;;;;;;;4.37;3.00;;;;;;;26.00;61.09;68821.38;5034808;28;20218;-70
2021/06/16 03:37:58;;;;;;;4.33;2.90;;;;;;;25.95;59.94;68816.88;5069900;28;20207;-70
2021/06/16 03:40:27;;;;;;;3.40;2.60;;;;;;;25.94;57.71;68814.88;5056613;28;20206;-70
2021/06/16 03:42:57;;;;;;;3.97;2.80;;;;;;;25.93;57.13;68813.53;5063018;28;20187;-70
2021/06/16 03:45:26;;;;;;;3.67;2.97;;;;;;;25.93;55.78;68813.94;5065684;28;20237;-70
2021/06/16 03:47:56;;;;;;;4.17;2.80;;;;;;;25.94;55.30;68815.09;5057361;28;20358;-71
2021/06/16 03:50:24;;;;;;;5.57;2.90;;;;;;;25.93;57.37;68814.13;5033381;28;20223;-70
2021/06/16 03:52:52;;;;;;;4.93;2.90;;;;;;;25.93;56.07;68814.25;5028677;28;20211;-71
2021/06/16 03:55:21;;;;;;;5.97;3.00;;;;;;;25.89;60.56;68810.31;5035793;28;20258;-70
2021/06/16 03:57:49;;;;;;;3.80;2.50;;;;;;;25.88;59.21;68808.56;5043972;28;20211;-70
2021/06/16 04:00:19;;;;;;;4.50;2.87;;;;;;;25.87;58.94;68807.59;5049066;28;20207;-70
2021/06/16 04:02:47;;;;;;;4.90;3.23;;;;;;;25.87;58.27;68807.94;5041407;28;20215;-71
2021/06/16 04:05:16;;;;;;;3.47;2.50;;;;;;;25.85;59.92;68805.66;5041761;28;20230;-70
2021/06/16 04:07:47;;;;;;;3.57;2.67;;;;;;;25.83;59.78;68803.22;5030421;28;20678;-71
2021/06/16 04:10:15;;;;;;;3.83;2.93;;;;;;;25.85;57.60;68805.34;5032945;28;20601;-70
2021/06/16 04:12:42;;;;;;;6.27;3.30;;;;;;;25.85;58.62;68805.91;5037615;28;20206;-70
2021/06/16 04:15:11;;;;;;;5.57;3.20;;;;;;;25.87;58.49;68807.47;5040744;28;20236;-71
2021/06/16 04:17:39;;;;;;;3.93;2.87;;;;;;;25.89;57.21;68810.00;5041221;28;20211;-71
2021/06/16 04:20:08;;;;;;;6.27;3.47;;;;;;;25.93;56.44;68814.75;5047064;28;20199;-70
2021/06/16 04:22:36;;;;;;;4.73;3.07;;;;;;;25.98;55.83;68819.75;5031589;28;20221;-70
2021/06/16 04:25:04;;;;;;;5.50;2.80;;;;;;;26.01;56.84;68824.09;5032928;28;20423;-71
2021/06/16 04:27:32;;;;;;;7.17;3.50;;;;;;;26.04;57.76;68826.69;5048033;28;20204;-70
2021/06/16 04:29:59;;;;;;;5.17;2.90;;;;;;;26.08;56.95;68831.09;5046375;28;20237;-71
2021/06/16 04:32:26;;;;;;;4.40;2.63;;;;;;;26.13;56.27;68837.53;5040884;28;20208;-72
2021/06/16 04:34:55;;;;;;;5.47;2.53;;;;;;;26.18;55.90;68842.81;5045775;28;20199;-71
2021/06/16 04:37:22;;;;;;;4.40;2.83;;;;;;;26.25;54.11;68850.47;5038716;28;20209;-71
2021/06/16 04:39:49;;;;;;;6.53;3.37;;;;;;;26.33;52.89;68859.75;5034378;28;20619;-71
2021/06/16 04:42:17;;;;;;;6.43;2.57;;;;;;;26.41;52.58;68869.69;5048464;28;20202;-69
2021/06/16 04:44:44;;;;;;;6.40;2.83;;;;;;;26.50;51.90;68880.03;5044737;28;20202;-71
2021/06/16 04:47:11;;;;;;;7.03;3.37;;;;;;;26.60;50.57;68891.06;5040095;28;20226;-71
2021/06/16 04:49:38;;;;;;;4.67;3.00;;;;;;;26.71;49.73;68902.88;5041063;28;20199;-70
2021/06/16 04:52:08;;;;;;;5.53;3.13;;;;;;;26.81;49.42;68914.81;5027920;28;20226;-70
2021/06/16 04:54:35;;;;;;;6.40;3.30;;;;;;;26.92;48.05;68927.69;5030311;28;20207;-70
2021/06/16 04:57:05;;;;;;;9.43;3.53;;;;;;;27.04;47.60;68941.00;5040682;28;20234;-70
2021/06/16 04:59:33;;;;;;;7.37;3.17;;;;;;;27.16;47.22;68955.13;5032989;28;20203;-68
2021/06/16 05:02:00;;;;;;;4.63;2.90;;;;;;;27.26;47.13;68965.75;5043907;28;20194;-70
2021/06/16 05:04:28;;;;;;;9.73;2.80;;;;;;;27.24;52.09;68964.00;5039483;28;20615;-70
2021/06/16 05:06:55;;;;;;;10.00;3.33;;;;;;;27.29;48.23;68969.69;5032032;28;20235;-70
2021/06/16 05:09:24;;;;;;;5.73;2.90;;;;;;;27.35;46.16;68977.00;5034642;28;20213;-74
2021/06/16 05:11:51;;;;;;;8.37;2.57;;;;;;;27.40;46.43;68982.91;5041007;28;20305;-76
2021/06/16 05:14:18;;;;;;;6.40;3.07;;;;;;;27.52;43.33;68997.00;5046177;28;20260;-73
2021/06/16 05:16:46;;;;;;;4.17;2.70;;;;;;;27.58;45.10;69003.75;5034196;28;20259;-77
2021/06/16 05:19:16;;;;;;;4.83;2.70;;;;;;;27.65;44.38;69010.75;5040678;28;20206;-72
2021/06/16 05:21:44;;;;;;;5.30;2.63;;;;;;;27.69;45.00;69015.16;5034093;28;20387;-73
2021/06/16 05:24:11;;;;;;;5.90;2.93;;;;;;;27.79;42.29;69027.41;5028518;28;20202;-74
2021/06/16 05:26:40;;;;;;;6.73;2.67;;;;;;;27.91;40.77;69040.50;5039787;28;20235;-76
2021/06/16 05:29:08;;;;;;;5.13;3.07;;;;;;;28.02;39.74;69054.16;5024692;28;20198;-78
2021/06/16 05:31:36;;;;;;;7.00;2.67;;;;;;;28.16;38.00;69069.66;5031371;28;20222;-70
2021/06/16 05:34:04;;;;;;;6.78;2.70;;;;;;;28.24;39.84;69077.94;5037419;28;20962;-71
2021/06/16 05:36:33;;;;;;;4.50;2.50;;;;;;;28.38;36.69;69094.16;5042499;28;20223;-70
2021/06/16 05:39:01;;;;;;;4.60;2.80;;;;;;;28.54;35.58;69112.38;5039790;28;20211;-71
2021/06/16 05:41:28;;;;;;;4.10;2.53;;;;;;;28.69;35.89;69129.81;5041499;28;20201;-72
2021/06/16 05:43:57;;;;;;;3.63;2.87;;;;;;;28.77;37.49;69138.25;5040623;28;20579;-75
2021/06/16 05:46:24;;;;;;;5.03;2.50;;;;;;;28.83;38.07;69145.84;5045620;28;20228;-69
2021/06/16 05:48:51;;;;;;;6.87;2.53;;;;;;;28.94;36.89;69158.06;5037506;28;20214;-72
2021/06/16 05:51:19;;;;;;;5.20;2.90;;;;;;;28.97;39.98;69161.09;5036146;28;20229;-72
2021/06/16 05:53:46;;;;;;;4.80;2.17;;;;;;;28.99;39.48;69163.53;5037213;28;20207;-73
2021/06/16 05:56:13;;;;;;;4.80;2.40;;;;;;;29.09;36.60;69175.06;5030287;28;20237;-74
2021/06/16 05:58:40;;;;;;;5.27;2.73;;;;;;;29.19;35.70;69186.56;5030136;28;20201;-70
2021/06/16 06:01:09;;;;;;;5.00;2.47;;;;;;;29.30;35.67;69198.88;5027284;28;20911;-72
2021/06/16 06:03:37;;;;;;;3.40;2.07;;;;;;;29.36;35.05;69205.50;5029645;28;20211;-73
2021/06/16 06:06:04;;;;;;;2.90;2.33;;;;;;;29.45;33.99;69216.16;5037761;28;20255;-76
2021/06/16 06:08:32;;;;;;;5.63;1.93;;;;;;;29.60;32.52;69232.66;5035011;28;20287;-70
2021/06/16 06:10:59;;;;;;;2.77;2.00;;;;;;;29.65;34.46;69239.25;5037744;28;20252;-70
2021/06/16 06:13:26;;;;;;;3.20;2.20;;;;;;;29.71;34.99;69246.19;5033541;28;20211;-69
2021/06/16 06:15:53;;;;;;;5.97;2.70;;;;;;;29.73;38.01;69247.78;5031801;28;20236;-72
2021/06/16 06:18:22;;;;;;;5.03;2.30;;;;;;;29.82;33.80;69258.09;5028510;28;20214;-69
2021/06/16 06:20:49;;;;;;;2.87;1.90;;;;;;;29.88;35.24;69264.56;5036202;28;20202;-70
2021/06/16 06:23:17;;;;;;;2.80;2.13;;;;;;;29.88;37.05;69265.59;5033551;28;20210;-73
2021/06/16 06:25:44;;;;;;;4.13;2.10;;;;;;;29.91;37.17;69268.50;5037059;28;20237;-70
2021/06/16 06:28:11;;;;;;;5.07;2.20;;;;;;;30.00;35.08;69279.28;5037662;28;20206;-73
2021/06/16 06:30:38;;;;;;;3.47;2.40;;;;;;;29.95;39.37;69273.88;5037376;28;20228;-72
2021/06/16 06:33:06;;;;;;;4.03;2.13;;;;;;;29.97;35.91;69276.28;5033565;28;20202;-77
2021/06/16 06:35:34;;;;;;;2.43;2.23;;;;;;;30.03;35.45;69282.41;5036277;28;20217;-76
2021/06/16 06:38:02;;;;;;;5.30;2.37;;;;;;;30.01;38.94;69280.28;5046209;28;20209;-76
2021/06/16 06:40:29;;;;;;;7.63;2.58;;;;;;;30.09;35.43;69288.75;5043412;28;20220;-76
2021/06/16 06:42:56;;;;;;;15.57;2.77;;;;;;;30.09;37.84;69289.59;5050874;28;20365;-74
2021/06/16 06:45:23;;;;;;;2.97;2.20;;;;;;;30.09;38.61;69289.31;5033466;28;20243;-70
2021/06/16 06:47:51;;;;;;;7.17;2.33;;;;;;;30.07;38.50;69287.00;5034899;28;20212;-72
2021/06/16 06:50:19;;;;;;;4.00;2.37;;;;;;;30.09;38.08;69289.00;5043726;28;20216;-72
2021/06/16 06:52:48;;;;;;;4.80;2.47;;;;;;;30.20;34.27;69301.72;5039353;28;20226;-72
2021/06/16 06:55:16;;;;;;;4.80;2.30;;;;;;;30.28;35.33;69310.59;5037869;28;20293;-71
2021/06/16 06:57:44;;;;;;;5.63;2.30;;;;;;;30.34;35.95;69318.09;5044489;28;20199;-72
2021/06/16 07:00:13;;;;;;;3.55;2.03;;;;;;;30.42;33.93;69327.47;5040831;28;20214;-72
2021/06/16 07:02:42;;;;;;;7.10;2.03;;;;;;;30.57;32.86;69344.66;5035908;28;20202;-70
2021/06/16 07:05:11;;;;;;;7.30;2.45;;;;;;;30.73;31.29;69362.75;5040250;28;20326;-71
2021/06/16 07:07:38;;;;;;;5.57;2.28;;;;;;;30.82;32.83;69373.19;5037639;28;20198;-70
2021/06/16 07:10:08;;;;;;;9.55;2.38;;;;;;;30.79;36.03;69370.47;5041882;28;20200;-71
2021/06/16 07:12:35;;;;;;;6.88;2.35;;;;;;;30.90;33.02;69382.81;5039609;28;20224;-71
2021/06/16 07:15:03;;;;;;;3.28;2.25;;;;;;;30.92;34.78;69384.25;5039263;28;20207;-71
2021/06/16 07:17:31;;;;;;;5.28;2.20;;;;;;;31.07;30.62;69401.97;5034023;28;20206;-71
2021/06/16 07:19:58;;;;;;;2.92;2.10;;;;;;;31.20;30.58;69416.91;5046335;28;20218;-71
2021/06/16 07:22:25;;;;;;;6.55;2.30;;;;;;;31.30;31.82;69428.44;5045558;28;20567;-71
2021/06/16 07:24:52;;;;;;;4.22;2.10;;;;;;;31.49;30.12;69450.19;5044397;28;20215;-72
2021/06/16 07:27:21;;;;;;;3.97;2.60;;;;;;;31.62;30.05;69464.25;5037471;28;20210;-71
2021/06/16 07:29:49;;;;;;;2.75;2.00;;;;;;;31.74;29.65;69477.13;5043099;28;20207;-72
2021/06/16 07:32:17;;;;;;;4.38;2.42;;;;;;;31.85;30.26;69489.63;5034470;28;20571;-71
2021/06/16 07:34:44;;;;;;;5.40;2.08;;;;;;;31.91;31.58;69497.59;5039782;28;20213;-71
2021/06/16 07:37:12;;;;;;;4.65;2.10;;;;;;;31.96;31.79;69502.19;5045020;28;20221;-71
2021/06/16 07:39:40;;;;;;;4.47;2.33;;;;;;;32.04;30.42;69511.38;5038158;28;20203;-70
2021/06/16 07:42:07;;;;;;;6.65;2.20;;;;;;;32.19;28.51;69528.53;5043634;28;20204;-71
2021/06/16 07:44:36;;;;;;;7.75;2.53;;;;;;;32.30;29.01;69541.47;5036129;28;20207;-70
2021/06/16 07:47:03;;;;;;;8.85;2.42;;;;;;;32.41;29.03;69553.41;5034015;28;20225;-70
2021/06/16 07:49:31;;;;;;;5.57;2.38;;;;;;;32.47;29.07;69561.09;5045295;28;20210;-71
2021/06/16 07:51:58;;;;;;;6.25;2.47;;;;;;;32.44;31.65;69557.91;5039790;28;20219;-71
2021/06/16 07:54:25;;;;;;;5.85;2.03;;;;;;;32.51;29.60;69565.28;5042597;28;20203;-70
2021/06/16 07:56:53;;;;;;;7.30;2.42;;;;;;;32.58;28.79;69574.25;5040628;28;20596;-72
2021/06/16 07:59:20;;;;;;;5.05;2.20;;;;;;;32.55;31.00;69569.91;5041381;28;20215;-71
2021/06/16 08:01:49;;;;;;;7.05;1.83;;;;;;;32.58;29.91;69573.72;5034698;28;20550;-71
2021/06/16 08:04:16;;;;;;;6.80;2.25;;;;;;;32.69;27.52;69587.09;5044048;28;20215;-71
2021/06/16 08:06:43;;;;;;;6.25;2.08;;;;;;;32.91;25.42;69611.84;5050607;28;20229;-72
2021/06/16 08:09:11;;;;;;;5.35;2.55;;;;;;;33.05;28.30;69627.25;5046696;28;20201;-71
2021/06/16 08:11:38;;;;;;;5.97;2.53;;;;;;;33.02;30.79;69624.38;5046032;28;20236;-70
2021/06/16 08:14:05;;;;;;;9.50;2.97;;;;;;;33.12;28.50;69635.63;5037914;28;20199;-71
2021/06/16 08:16:33;;;;;;;7.07;3.30;;;;;;;33.12;30.76;69635.13;5029292;28;20857;-73
2021/06/16 08:19:01;;;;;;;4.78;2.80;;;;;;;33.15;30.03;69638.84;5037490;28;20206;-70
2021/06/16 08:21:29;;;;;;;6.60;2.83;;;;;;;33.21;30.47;69644.41;5044781;28;20675;-70
2021/06/16 08:23:56;;;;;;;10.05;3.03;;;;;;;33.27;29.30;69651.88;5039124;28;20281;-72
2021/06/16 08:26:23;;;;;;;6.40;2.70;;;;;;;33.39;28.21;69664.84;5040074;28;20258;-72
2021/06/16 08:28:50;;;;;;;8.13;2.80;;;;;;;33.41;30.35;69667.88;5030685;28;20199;-70
2021/06/16 08:31:18;;;;;;;5.55;2.35;;;;;;;33.44;29.19;69671.16;5032400;28;20232;-71
2021/06/16 08:33:45;;;;;;;6.25;2.78;;;;;;;33.46;29.44;69673.03;5036611;28;20524;-69
2021/06/16 08:36:14;;;;;;;5.32;2.92;;;;;;;33.62;27.34;69690.81;5031360;28;20234;-70
2021/06/16 08:38:40;;;;;;;5.57;2.58;;;27.10;1.00;;;33.70;27.28;69699.34;5040350;28;20215;-71
2021/06/16 08:41:08;;;;;;;6.57;2.67;;;27.30;1.00;;;33.87;26.39;69719.31;5042258;28;20205;-70
2021/06/16 08:43:40;;;;;;;3.92;2.05;;;27.60;1.00;;;33.83;27.73;69714.16;5037747;28;20625;-70
2021/06/16 08:46:09;;;;;;;5.30;2.05;;;27.20;1.00;;;33.81;27.42;69712.88;5032523;28;20226;-71
2021/06/16 08:48:37;;;;;;;5.75;2.15;;;27.10;1.00;;;33.80;27.42;69711.44;5037261;28;20206;-72
2021/06/16 08:51:05;;;;;;;4.07;1.98;;;27.00;1.00;;;33.88;26.22;69719.94;5034456;28;20205;-73
2021/06/16 08:53:34;;;;;;;4.15;2.28;;;27.20;1.00;;;33.99;25.05;69732.84;5042249;28;20204;-71
2021/06/16 08:56:01;;;;;;;3.90;2.17;;;27.50;1.00;;;33.98;27.02;69731.22;5041738;28;20226;-71
2021/06/16 08:58:29;;;;;;;6.35;2.63;;;27.50;1.00;;;33.93;27.28;69725.78;5031178;28;20217;-71
2021/06/16 09:00:56;;;;;;;4.93;2.30;;;27.30;1.00;;;33.89;27.53;69721.81;5036224;28;20214;-71
2021/06/16 09:03:23;;;;;;;6.57;2.10;;;27.20;1.00;;;33.82;28.75;69713.59;5033469;28;20210;-71
2021/06/16 09:05:51;;;;;;;5.50;2.40;;;27.00;1.00;;;33.78;28.01;69709.09;5034211;28;20301;-71
2021/06/16 09:08:22;;;;;;;4.28;2.15;;;27.10;1.00;;;33.82;26.16;69713.31;5035639;28;20203;-71
2021/06/16 09:10:53;;;;;;;3.70;2.28;;;27.30;1.00;;;33.84;26.73;69716.38;5044064;28;20203;-72
2021/06/16 09:13:30;;;;;;;4.88;2.35;;;27.50;1.00;;;33.98;25.61;69731.28;5039975;28;20240;-71
2021/06/16 09:15:58;;;;;;;3.75;2.15;;;27.70;1.00;;;34.12;24.79;69746.97;5031430;28;20888;-72
2021/06/16 09:18:26;;;;;;;5.00;2.45;;;28.00;1.00;;;34.28;24.00;69765.31;5034151;28;20679;-73
2021/06/16 09:20:56;;;;;;;5.60;1.90;;;28.00;1.00;;;34.39;24.49;69778.91;5046925;28;20210;-72
2021/06/16 09:23:27;;;;;;;4.95;2.10;;;28.40;1.00;;;34.59;22.51;69801.38;5032847;28;20568;-72
2021/06/16 09:26:11;;;;;;;5.57;2.17;;;28.60;1.00;;;34.74;23.01;69818.38;5035403;28;20721;-72
2021/06/16 09:28:40;;;;;;;2.58;2.00;;;28.70;1.00;;;34.88;23.71;69833.19;5038083;28;20206;-73
2021/06/16 09:31:07;;;;;;;6.20;2.38;;;28.60;1.00;;;35.01;23.88;69848.19;5032008;28;20202;-71
2021/06/16 09:33:35;;;;;;;3.22;2.20;;;28.60;1.00;;;35.12;24.04;69860.66;5035139;28;20245;-72
2021/06/16 09:36:02;;;;;;;11.82;2.53;;;28.70;1.00;;;35.23;23.65;69873.03;5035361;28;20320;-72
2021/06/16 09:38:32;;;;;;;5.03;2.08;;;28.80;1.00;;;35.39;23.08;69891.22;5034569;28;20666;-72
2021/06/16 09:41:00;;;;;;;5.80;2.25;;;29.00;1.00;;;35.50;23.70;69903.19;5041676;28;21698;-73
2021/06/16 09:43:30;;;;;;;3.45;2.20;;;29.20;1.00;;;35.55;25.15;69909.19;5040676;28;20209;-75
2021/06/16 09:46:00;;;;;;;3.88;2.00;;;29.00;1.00;;;35.57;25.17;69911.53;5042943;28;20309;-74
2021/06/16 09:48:33;;;;;;;3.83;2.30;;;28.80;1.00;;;35.58;25.06;69912.56;5029904;28;20213;-76
2021/06/16 09:51:20;;;;;;;3.50;1.90;;;28.90;1.00;;;35.64;23.53;69919.91;5031867;28;20203;-77
2021/06/16 09:54:02;;;;;;;5.15;1.90;;;28.90;1.00;;;35.79;22.59;69936.34;5043749;28;20201;-76
2021/06/16 09:56:32;;;;;;;3.45;2.13;;;29.20;1.00;;;35.79;24.01;69936.59;5031596;28;20309;-75
2021/06/16 09:59:01;;;;;;;5.40;2.05;;;28.90;1.00;;;35.87;23.44;69944.75;5032594;28;20214;-73
2021/06/16 10:01:53;;;;;;;4.72;1.90;;;29.20;1.00;;;35.94;23.09;69952.50;5026073;28;20207;-73
2021/06/16 10:04:42;;;;;;;5.15;2.20;;;29.40;1.00;;;35.98;23.70;69956.84;5029656;28;20626;-79
2021/06/16 10:07:18;;;;;;;3.00;2.00;;;29.40;1.00;;;35.92;26.01;69949.38;5033550;28;20222;-71
2021/06/16 10:09:54;;;;;;;4.22;2.28;;;28.80;1.00;;;35.99;23.62;69957.88;5030950;28;20230;-74
2021/06/16 10:12:23;;;;;;;3.90;1.88;;;29.20;1.00;;;36.03;23.52;69962.50;5029093;28;20226;-75
2021/06/16 10:14:52;;;;;;;3.38;1.70;;;29.20;1.00;;;36.05;24.00;69964.41;5036015;28;20207;-77
2021/06/16 10:17:19;;;;;;;2.95;1.92;;;29.50;1.00;;;36.04;24.55;69963.97;5037320;28;20203;-75
2021/06/16 10:19:49;;;;;;;3.28;2.00;;;29.50;1.00;;;36.06;24.09;69966.09;5030407;28;20686;-77
2021/06/16 10:22:16;;;;;;;6.60;2.40;;;29.50;1.00;;;36.09;24.13;69969.41;5033760;28;20285;-77
2021/06/16 10:24:44;;;;;;;4.57;2.08;;;29.60;1.00;;;36.21;22.54;69981.94;5036378;28;20216;-74
2021/06/16 10:27:18;;;;;;;6.22;2.05;;;29.60;1.00;;;36.32;21.87;69995.13;5031409;28;20664;-76
2021/06/16 10:29:49;;;;;;;3.47;2.10;;;30.00;1.00;;;36.25;25.11;69987.19;5038237;28;20259;-74
2021/06/16 10:32:18;;;;;;;2.72;2.13;;;29.40;1.00;;;36.29;23.22;69991.63;5037885;28;20215;-76
2021/06/16 10:35:02;;;;;;;1.80;1.65;;;29.20;1.00;;;36.38;22.77;70001.41;5037934;28;20210;-75
2021/06/16 10:37:35;;;;;;;4.38;1.98;;;29.50;1.00;;;36.54;21.46;70020.28;5042356;28;20633;-75
2021/06/16 10:40:45;;;;;;;4.22;2.03;;;29.90;1.00;;;36.63;21.51;70030.19;5040659;28;20201;-77
2021/06/16 10:43:26;;;;;;;5.43;2.28;;;30.30;1.00;;;36.66;22.41;70033.56;5034902;28;20198;-76
2021/06/16 10:46:00;;;;;;;3.40;1.98;;;30.20;1.00;;;36.74;22.43;70042.72;5033224;28;20309;-74
2021/06/16 10:49:01;;;;;;;4.15;2.08;;;30.10;1.00;;;36.71;23.40;70038.75;5040076;28;20213;-75
2021/06/16 10:51:35;;;;;;;3.53;2.20;;;29.80;1.00;;;36.77;22.01;70046.16;4956474;28;20220;-74
2021/06/16 10:54:23;;;;;;;3.97;2.10;;;30.00;1.00;;;36.87;23.33;70058.50;5023485;28;20702;-76
2021/06/16 10:56:58;;;;;;;4.57;2.75;;;30.30;1.00;;;36.81;24.05;70050.63;5029206;28;20226;-73
2021/06/16 11:00:03;;;;;;;6.70;3.30;;;30.00;1.00;;;36.78;22.53;70047.03;5033108;28;20312;-73
2021/06/16 11:02:55;;;;;;;21.20;2.60;;;29.70;1.00;;;36.82;22.08;70052.25;5031441;28;20683;-79
2021/06/16 11:05:26;;;;;;;5.25;2.00;;;30.00;1.00;;;36.75;23.84;70043.97;5032650;28;20654;-74
2021/06/16 11:07:54;;;;;;;6.03;2.10;;;29.90;1.00;;;36.83;22.56;70052.59;5039848;28;20202;-73
2021/06/16 11:10:21;;;;;;;3.95;2.10;;;30.10;1.00;;;36.84;22.81;70054.31;5031581;28;20206;-75
2021/06/16 11:12:53;;;;;;;3.60;1.85;;;30.30;1.00;;;36.91;21.99;70062.31;5032466;28;20718;-76
2021/06/16 11:15:35;;;;;;;3.00;2.20;;;30.40;1.00;;;37.02;21.16;70075.00;5031305;28;20742;-73
2021/06/16 11:18:04;;;;;;;3.50;2.22;;;30.50;1.00;;;36.94;23.76;70065.47;5044186;28;20202;-76
2021/06/16 11:20:36;;;;;;;2.67;2.03;;;30.00;1.00;;;36.90;23.76;70060.41;5031348;28;20206;-74
2021/06/16 11:23:05;;;;;;;2.20;1.90;;;;;;;36.85;23.59;70054.97;5046517;28;20190;-83
2021/06/16 11:25:38;;;;;;;5.03;2.17;;;29.90;1.00;;;36.80;23.54;70049.06;5029984;28;20237;-71
2021/06/16 11:28:18;;;;;;;4.63;2.20;;;29.80;1.00;;;36.84;23.69;70053.72;5035692;28;20687;-71